sensor_id;sensor_type;location;lat;lon;timestamp;temperature;humidity
7461;DHT22;6757;52.258;12.840;2023-01-13T00:01:58;8.90;99.90
7461;DHT22;6757;52.258;12.840;2023-01-13T00:04:29;8.90;99.90
7461;DHT22;6757;52.258;12.840;2023-01-13T00:06:59;8.90;99.90
7461;DHT22;6757;52.258;12.840;2023-01-13T00:09:31;8.90;99.90
7461;DHT22;6757;52.258;12.840;2023-01-13T00:12:00;8.90;99.90
7461;DHT22;6757;52.258;12.840;2023-01-13T00:14:34;8.90;99.90
7461;DHT22;6757;52.258;12.840;2023-01-13T00:17:03;8.90;99.90
7461;DHT22;6757;52.258;12.840;2023-01-13T00:19:32;8.90;99.90
7461;DHT22;6757;52.258;12.840;2023-01-13T00:22:00;8.90;99.90
7461;DHT22;6757;52.258;12.840;2023-01-13T00:24:30;8.90;99.90
7461;DHT22;6757;52.258;12.840;2023-01-13T00:26:58;9.00;99.90
7461;DHT22;6757;52.258;12.840;2023-01-13T00:29:27;8.90;99.90
7461;DHT22;6757;52.258;12.840;2023-01-13T00:31:57;9.00;99.90
7461;DHT22;6757;52.258;12.840;2023-01-13T00:34:27;9.00;99.90
7461;DHT22;6757;52.258;12.840;2023-01-13T00:36:55;9.00;99.90
7461;DHT22;6757;52.258;12.840;2023-01-13T00:39:25;8.90;99.90
7461;DHT22;6757;52.258;12.840;2023-01-13T00:41:53;9.00;99.90
7461;DHT22;6757;52.258;12.840;2023-01-13T00:44:38;9.00;99.90
7461;DHT22;6757;52.258;12.840;2023-01-13T00:47:07;9.00;99.90
7461;DHT22;6757;52.258;12.840;2023-01-13T00:49:35;9.00;99.90
7461;DHT22;6757;52.258;12.840;2023-01-13T00:52:01;9.00;99.90
7461;DHT22;6757;52.258;12.840;2023-01-13T00:54:28;9.00;99.90
7461;DHT22;6757;52.258;12.840;2023-01-13T00:56:55;9.00;99.90
7461;DHT22;6757;52.258;12.840;2023-01-13T00:59:22;9.00;99.90
7461;DHT22;6757;52.258;12.840;2023-01-13T01:01:49;9.00;99.90
7461;DHT22;6757;52.258;12.840;2023-01-13T01:04:17;9.00;99.90
7461;DHT22;6757;52.258;12.840;2023-01-13T01:06:44;9.00;99.90
7461;DHT22;6757;52.258;12.840;2023-01-13T01:09:12;9.00;99.90
7461;DHT22;6757;52.258;12.840;2023-01-13T01:11:40;9.00;99.90
7461;DHT22;6757;52.258;12.840;2023-01-13T01:14:09;9.00;99.90
7461;DHT22;6757;52.258;12.840;2023-01-13T01:16:38;9.00;99.90
7461;DHT22;6757;52.258;12.840;2023-01-13T01:19:06;9.00;99.90
7461;DHT22;6757;52.258;12.840;2023-01-13T01:21:35;9.00;99.90
7461;DHT22;6757;52.258;12.840;2023-01-13T01:24:03;9.00;99.90
7461;DHT22;6757;52.258;12.840;2023-01-13T01:26:31;9.00;99.90
7461;DHT22;6757;52.258;12.840;2023-01-13T01:28:58;9.00;99.90
7461;DHT22;6757;52.258;12.840;2023-01-13T01:31:28;9.00;99.90
7461;DHT22;6757;52.258;12.840;2023-01-13T01:33:57;9.10;99.90
7461;DHT22;6757;52.258;12.840;2023-01-13T01:36:25;9.00;99.90
7461;DHT22;6757;52.258;12.840;2023-01-13T01:38:55;9.00;99.90
7461;DHT22;6757;52.258;12.840;2023-01-13T01:41:24;9.10;99.90
7461;DHT22;6757;52.258;12.840;2023-01-13T01:43:55;9.00;99.90
7461;DHT22;6757;52.258;12.840;2023-01-13T01:46:29;9.00;99.90
7461;DHT22;6757;52.258;12.840;2023-01-13T01:49:02;9.00;99.90
7461;DHT22;6757;52.258;12.840;2023-01-13T01:51:35;9.00;99.90
7461;DHT22;6757;52.258;12.840;2023-01-13T01:54:08;9.00;99.90
7461;DHT22;6757;52.258;12.840;2023-01-13T01:56:38;9.00;99.90
7461;DHT22;6757;52.258;12.840;2023-01-13T01:59:07;9.00;99.90
7461;DHT22;6757;52.258;12.840;2023-01-13T02:01:34;9.00;99.90
7461;DHT22;6757;52.258;12.840;2023-01-13T02:04:10;9.00;99.90
7461;DHT22;6757;52.258;12.840;2023-01-13T02:06:40;9.00;99.90
7461;DHT22;6757;52.258;12.840;2023-01-13T02:09:10;9.00;99.90
7461;DHT22;6757;52.258;12.840;2023-01-13T02:11:37;9.00;99.90
7461;DHT22;6757;52.258;12.840;2023-01-13T02:14:24;9.00;99.90
7461;DHT22;6757;52.258;12.840;2023-01-13T02:17:00;9.10;99.90
7461;DHT22;6757;52.258;12.840;2023-01-13T02:19:49;9.10;99.90
7461;DHT22;6757;52.258;12.840;2023-01-13T02:22:52;9.10;99.90
7461;DHT22;6757;52.258;12.840;2023-01-13T02:25:51;9.10;99.90
7461;DHT22;6757;52.258;12.840;2023-01-13T02:28:41;9.10;99.90
7461;DHT22;6757;52.258;12.840;2023-01-13T02:31:34;9.20;99.90
7461;DHT22;6757;52.258;12.840;2023-01-13T02:34:10;9.20;99.90
7461;DHT22;6757;52.258;12.840;2023-01-13T02:36:47;9.20;99.90
7461;DHT22;6757;52.258;12.840;2023-01-13T02:39:22;9.20;99.90
7461;DHT22;6757;52.258;12.840;2023-01-13T02:41:54;9.30;99.90
7461;DHT22;6757;52.258;12.840;2023-01-13T02:44:43;9.30;99.90
7461;DHT22;6757;52.258;12.840;2023-01-13T02:47:17;9.30;99.90
7461;DHT22;6757;52.258;12.840;2023-01-13T02:49:48;9.30;99.90
7461;DHT22;6757;52.258;12.840;2023-01-13T02:52:20;9.40;99.90
7461;DHT22;6757;52.258;12.840;2023-01-13T02:54:53;9.40;99.90
7461;DHT22;6757;52.258;12.840;2023-01-13T02:57:20;9.40;99.90
7461;DHT22;6757;52.258;12.840;2023-01-13T02:59:48;9.40;99.90
7461;DHT22;6757;52.258;12.840;2023-01-13T03:02:20;9.40;99.90
7461;DHT22;6757;52.258;12.840;2023-01-13T03:04:51;9.40;99.90
7461;DHT22;6757;52.258;12.840;2023-01-13T03:07:43;9.40;99.90
7461;DHT22;6757;52.258;12.840;2023-01-13T03:10:36;9.40;99.90
7461;DHT22;6757;52.258;12.840;2023-01-13T03:13:19;9.40;99.90
7461;DHT22;6757;52.258;12.840;2023-01-13T03:15:57;9.40;99.90
7461;DHT22;6757;52.258;12.840;2023-01-13T03:18:39;9.30;99.90
7461;DHT22;6757;52.258;12.840;2023-01-13T03:21:14;9.40;99.90
7461;DHT22;6757;52.258;12.840;2023-01-13T03:23:49;9.30;99.90
7461;DHT22;6757;52.258;12.840;2023-01-13T03:26:33;9.30;99.90
7461;DHT22;6757;52.258;12.840;2023-01-13T03:29:08;9.30;99.90
7461;DHT22;6757;52.258;12.840;2023-01-13T03:31:46;9.30;99.90
7461;DHT22;6757;52.258;12.840;2023-01-13T03:34:20;9.30;99.90
7461;DHT22;6757;52.258;12.840;2023-01-13T03:36:52;9.30;99.90
7461;DHT22;6757;52.258;12.840;2023-01-13T03:39:25;9.20;99.90
7461;DHT22;6757;52.258;12.840;2023-01-13T03:41:57;9.20;99.90
7461;DHT22;6757;52.258;12.840;2023-01-13T03:44:30;9.30;99.90
7461;DHT22;6757;52.258;12.840;2023-01-13T03:47:04;9.30;99.90
7461;DHT22;6757;52.258;12.840;2023-01-13T03:49:39;9.20;99.90
7461;DHT22;6757;52.258;12.840;2023-01-13T03:52:11;9.20;99.90
7461;DHT22;6757;52.258;12.840;2023-01-13T03:54:45;9.30;99.90
7461;DHT22;6757;52.258;12.840;2023-01-13T03:57:17;9.20;99.90
7461;DHT22;6757;52.258;12.840;2023-01-13T03:59:49;9.20;99.90
7461;DHT22;6757;52.258;12.840;2023-01-13T04:02:24;9.20;99.90
7461;DHT22;6757;52.258;12.840;2023-01-13T04:04:59;9.20;99.90
7461;DHT22;6757;52.258;12.840;2023-01-13T04:07:35;9.20;99.90
7461;DHT22;6757;52.258;12.840;2023-01-13T04:10:09;9.20;99.90
7461;DHT22;6757;52.258;12.840;2023-01-13T04:15:43;9.20;99.90
7461;DHT22;6757;52.258;12.840;2023-01-13T04:18:14;9.30;99.90
7461;DHT22;6757;52.258;12.840;2023-01-13T04:20:46;9.30;99.90
7461;DHT22;6757;52.258;12.840;2023-01-13T04:23:14;9.30;99.90
7461;DHT22;6757;52.258;12.840;2023-01-13T04:25:41;9.30;99.90
7461;DHT22;6757;52.258;12.840;2023-01-13T04:28:10;9.30;99.90
7461;DHT22;6757;52.258;12.840;2023-01-13T04:30:37;9.40;99.90
7461;DHT22;6757;52.258;12.840;2023-01-13T04:33:05;9.40;99.90
7461;DHT22;6757;52.258;12.840;2023-01-13T04:35:33;9.40;99.90
7461;DHT22;6757;52.258;12.840;2023-01-13T04:38:03;9.40;99.90
7461;DHT22;6757;52.258;12.840;2023-01-13T04:40:31;9.40;99.90
7461;DHT22;6757;52.258;12.840;2023-01-13T04:42:58;9.40;99.90
7461;DHT22;6757;52.258;12.840;2023-01-13T04:45:25;9.40;99.90
7461;DHT22;6757;52.258;12.840;2023-01-13T04:47:53;9.40;99.90
7461;DHT22;6757;52.258;12.840;2023-01-13T04:50:20;9.40;99.90
7461;DHT22;6757;52.258;12.840;2023-01-13T04:52:48;9.50;99.90
7461;DHT22;6757;52.258;12.840;2023-01-13T04:55:18;9.40;99.90
7461;DHT22;6757;52.258;12.840;2023-01-13T04:57:46;9.50;99.90
7461;DHT22;6757;52.258;12.840;2023-01-13T05:00:14;9.50;99.90
7461;DHT22;6757;52.258;12.840;2023-01-13T05:02:42;9.50;99.90
7461;DHT22;6757;52.258;12.840;2023-01-13T05:05:09;9.50;99.90
7461;DHT22;6757;52.258;12.840;2023-01-13T05:07:36;9.40;99.90
7461;DHT22;6757;52.258;12.840;2023-01-13T05:10:04;9.50;99.90
7461;DHT22;6757;52.258;12.840;2023-01-13T05:12:33;9.50;99.90
7461;DHT22;6757;52.258;12.840;2023-01-13T05:15:18;9.50;99.90
7461;DHT22;6757;52.258;12.840;2023-01-13T05:18:02;9.50;99.90
7461;DHT22;6757;52.258;12.840;2023-01-13T05:20:30;9.50;99.90
7461;DHT22;6757;52.258;12.840;2023-01-13T05:22:57;9.40;99.90
7461;DHT22;6757;52.258;12.840;2023-01-13T05:25:41;9.50;99.90
7461;DHT22;6757;52.258;12.840;2023-01-13T05:28:10;9.40;99.90
7461;DHT22;6757;52.258;12.840;2023-01-13T05:30:39;9.40;99.90
7461;DHT22;6757;52.258;12.840;2023-01-13T05:33:08;9.40;99.90
7461;DHT22;6757;52.258;12.840;2023-01-13T05:35:37;9.40;99.90
7461;DHT22;6757;52.258;12.840;2023-01-13T05:38:03;9.40;99.90
7461;DHT22;6757;52.258;12.840;2023-01-13T05:40:30;9.40;99.90
7461;DHT22;6757;52.258;12.840;2023-01-13T05:43:18;9.50;99.90
7461;DHT22;6757;52.258;12.840;2023-01-13T05:45:46;9.50;99.90
7461;DHT22;6757;52.258;12.840;2023-01-13T05:48:16;9.50;99.90
7461;DHT22;6757;52.258;12.840;2023-01-13T05:50:44;9.60;99.90
7461;DHT22;6757;52.258;12.840;2023-01-13T05:53:12;9.60;99.90
7461;DHT22;6757;52.258;12.840;2023-01-13T05:55:40;9.70;99.90
7461;DHT22;6757;52.258;12.840;2023-01-13T05:58:07;9.70;99.90
7461;DHT22;6757;52.258;12.840;2023-01-13T06:00:36;9.60;99.90
7461;DHT22;6757;52.258;12.840;2023-01-13T06:03:03;9.60;99.90
7461;DHT22;6757;52.258;12.840;2023-01-13T06:05:30;9.60;99.90
7461;DHT22;6757;52.258;12.840;2023-01-13T06:07:58;9.60;99.90
7461;DHT22;6757;52.258;12.840;2023-01-13T06:10:26;9.60;99.90
7461;DHT22;6757;52.258;12.840;2023-01-13T06:12:54;9.60;99.90
7461;DHT22;6757;52.258;12.840;2023-01-13T06:15:22;9.60;99.90
7461;DHT22;6757;52.258;12.840;2023-01-13T06:17:50;9.60;99.90
7461;DHT22;6757;52.258;12.840;2023-01-13T06:20:17;9.60;99.90
7461;DHT22;6757;52.258;12.840;2023-01-13T06:22:46;9.60;99.90
7461;DHT22;6757;52.258;12.840;2023-01-13T06:25:20;9.60;99.90
7461;DHT22;6757;52.258;12.840;2023-01-13T06:27:50;9.60;99.90
7461;DHT22;6757;52.258;12.840;2023-01-13T06:30:17;9.60;99.90
7461;DHT22;6757;52.258;12.840;2023-01-13T06:32:51;9.60;99.90
7461;DHT22;6757;52.258;12.840;2023-01-13T06:35:22;9.60;99.90
7461;DHT22;6757;52.258;12.840;2023-01-13T06:37:53;9.60;99.90
7461;DHT22;6757;52.258;12.840;2023-01-13T06:40:22;9.60;99.90
7461;DHT22;6757;52.258;12.840;2023-01-13T06:42:50;9.60;99.90
7461;DHT22;6757;52.258;12.840;2023-01-13T06:45:35;9.60;99.90
7461;DHT22;6757;52.258;12.840;2023-01-13T06:48:04;9.60;99.90
7461;DHT22;6757;52.258;12.840;2023-01-13T06:50:31;9.60;99.90
7461;DHT22;6757;52.258;12.840;2023-01-13T06:52:58;9.60;99.90
7461;DHT22;6757;52.258;12.840;2023-01-13T06:55:25;9.60;99.90
7461;DHT22;6757;52.258;12.840;2023-01-13T06:57:53;9.60;99.90
7461;DHT22;6757;52.258;12.840;2023-01-13T07:00:22;9.50;99.90
7461;DHT22;6757;52.258;12.840;2023-01-13T07:02:50;9.50;99.90
7461;DHT22;6757;52.258;12.840;2023-01-13T07:05:19;9.60;99.90
7461;DHT22;6757;52.258;12.840;2023-01-13T07:07:46;9.50;99.90
7461;DHT22;6757;52.258;12.840;2023-01-13T07:10:14;9.40;99.90
7461;DHT22;6757;52.258;12.840;2023-01-13T07:12:47;9.40;99.90
7461;DHT22;6757;52.258;12.840;2023-01-13T07:15:33;9.40;99.90
7461;DHT22;6757;52.258;12.840;2023-01-13T07:18:00;9.30;99.90
7461;DHT22;6757;52.258;12.840;2023-01-13T07:20:29;9.30;99.90
7461;DHT22;6757;52.258;12.840;2023-01-13T07:22:57;9.30;99.90
7461;DHT22;6757;52.258;12.840;2023-01-13T07:25:24;9.30;99.90
7461;DHT22;6757;52.258;12.840;2023-01-13T07:27:51;9.20;99.90
7461;DHT22;6757;52.258;12.840;2023-01-13T07:30:18;9.20;99.90
7461;DHT22;6757;52.258;12.840;2023-01-13T07:32:45;9.20;99.90
7461;DHT22;6757;52.258;12.840;2023-01-13T07:35:12;9.20;99.90
7461;DHT22;6757;52.258;12.840;2023-01-13T07:37:40;9.20;99.90
7461;DHT22;6757;52.258;12.840;2023-01-13T07:40:08;9.10;99.90
7461;DHT22;6757;52.258;12.840;2023-01-13T07:42:37;9.10;99.90
7461;DHT22;6757;52.258;12.840;2023-01-13T07:45:22;9.10;99.90
7461;DHT22;6757;52.258;12.840;2023-01-13T07:47:50;9.00;99.90
7461;DHT22;6757;52.258;12.840;2023-01-13T07:50:18;9.00;99.90
7461;DHT22;6757;52.258;12.840;2023-01-13T07:52:48;9.00;99.90
7461;DHT22;6757;52.258;12.840;2023-01-13T07:55:15;9.00;99.90
7461;DHT22;6757;52.258;12.840;2023-01-13T07:57:42;9.00;99.90
7461;DHT22;6757;52.258;12.840;2023-01-13T08:00:10;9.00;99.90
7461;DHT22;6757;52.258;12.840;2023-01-13T08:02:37;9.00;99.90
7461;DHT22;6757;52.258;12.840;2023-01-13T08:05:05;9.00;99.90
7461;DHT22;6757;52.258;12.840;2023-01-13T08:07:32;9.00;99.90
7461;DHT22;6757;52.258;12.840;2023-01-13T08:10:01;9.00;99.90
7461;DHT22;6757;52.258;12.840;2023-01-13T08:12:28;9.00;99.90
7461;DHT22;6757;52.258;12.840;2023-01-13T08:15:12;9.00;99.90
7461;DHT22;6757;52.258;12.840;2023-01-13T08:17:39;9.00;99.90
7461;DHT22;6757;52.258;12.840;2023-01-13T08:20:07;9.00;99.90
7461;DHT22;6757;52.258;12.840;2023-01-13T08:22:35;9.00;99.90
7461;DHT22;6757;52.258;12.840;2023-01-13T08:25:05;9.00;99.90
7461;DHT22;6757;52.258;12.840;2023-01-13T08:27:32;9.00;99.90
7461;DHT22;6757;52.258;12.840;2023-01-13T08:29:59;9.00;99.90
7461;DHT22;6757;52.258;12.840;2023-01-13T08:32:26;9.00;99.90
7461;DHT22;6757;52.258;12.840;2023-01-13T08:34:53;9.00;99.90
7461;DHT22;6757;52.258;12.840;2023-01-13T08:37:20;9.10;99.90
7461;DHT22;6757;52.258;12.840;2023-01-13T08:39:48;9.00;99.90
7461;DHT22;6757;52.258;12.840;2023-01-13T08:42:16;9.00;99.90
7461;DHT22;6757;52.258;12.840;2023-01-13T08:44:43;9.00;99.90
7461;DHT22;6757;52.258;12.840;2023-01-13T08:47:10;9.00;99.90
7461;DHT22;6757;52.258;12.840;2023-01-13T08:49:37;9.00;99.90
7461;DHT22;6757;52.258;12.840;2023-01-13T08:52:04;9.10;99.90
7461;DHT22;6757;52.258;12.840;2023-01-13T08:54:31;9.00;99.90
7461;DHT22;6757;52.258;12.840;2023-01-13T08:56:57;9.00;99.90
7461;DHT22;6757;52.258;12.840;2023-01-13T08:59:27;8.90;99.90
7461;DHT22;6757;52.258;12.840;2023-01-13T09:01:54;8.90;99.90
7461;DHT22;6757;52.258;12.840;2023-01-13T09:04:23;8.90;99.90
7461;DHT22;6757;52.258;12.840;2023-01-13T09:06:52;8.90;99.90
7461;DHT22;6757;52.258;12.840;2023-01-13T09:09:20;8.90;99.90
7461;DHT22;6757;52.258;12.840;2023-01-13T09:11:49;8.90;99.90
7461;DHT22;6757;52.258;12.840;2023-01-13T09:14:36;8.90;99.90
7461;DHT22;6757;52.258;12.840;2023-01-13T09:17:03;8.80;99.90
7461;DHT22;6757;52.258;12.840;2023-01-13T09:19:31;8.80;99.90
7461;DHT22;6757;52.258;12.840;2023-01-13T09:21:58;8.80;99.90
7461;DHT22;6757;52.258;12.840;2023-01-13T09:24:25;8.80;99.90
7461;DHT22;6757;52.258;12.840;2023-01-13T09:26:52;8.80;99.90
7461;DHT22;6757;52.258;12.840;2023-01-13T09:29:19;8.80;99.90
7461;DHT22;6757;52.258;12.840;2023-01-13T09:31:48;8.80;99.90
7461;DHT22;6757;52.258;12.840;2023-01-13T09:34:16;8.70;99.90
7461;DHT22;6757;52.258;12.840;2023-01-13T09:37:02;8.70;99.90
7461;DHT22;6757;52.258;12.840;2023-01-13T09:39:31;8.70;99.90
7461;DHT22;6757;52.258;12.840;2023-01-13T09:42:02;8.60;99.90
7461;DHT22;6757;52.258;12.840;2023-01-13T09:44:56;8.60;99.90
7461;DHT22;6757;52.258;12.840;2023-01-13T09:47:30;8.60;99.90
7461;DHT22;6757;52.258;12.840;2023-01-13T09:50:05;8.50;99.90
7461;DHT22;6757;52.258;12.840;2023-01-13T09:52:41;8.50;99.90
7461;DHT22;6757;52.258;12.840;2023-01-13T09:55:12;8.50;99.90
7461;DHT22;6757;52.258;12.840;2023-01-13T09:57:41;8.40;99.90
7461;DHT22;6757;52.258;12.840;2023-01-13T10:00:11;8.40;99.90
7461;DHT22;6757;52.258;12.840;2023-01-13T10:02:58;8.40;99.90
7461;DHT22;6757;52.258;12.840;2023-01-13T10:05:37;8.30;99.90
7461;DHT22;6757;52.258;12.840;2023-01-13T10:08:09;8.30;99.90
7461;DHT22;6757;52.258;12.840;2023-01-13T10:10:41;8.40;99.90
7461;DHT22;6757;52.258;12.840;2023-01-13T10:13:15;8.40;99.90
7461;DHT22;6757;52.258;12.840;2023-01-13T10:15:55;8.40;99.90
7461;DHT22;6757;52.258;12.840;2023-01-13T10:18:33;8.40;99.90
7461;DHT22;6757;52.258;12.840;2023-01-13T10:21:18;8.40;99.90
7461;DHT22;6757;52.258;12.840;2023-01-13T10:24:00;8.40;99.90
7461;DHT22;6757;52.258;12.840;2023-01-13T10:26:42;8.40;99.90
7461;DHT22;6757;52.258;12.840;2023-01-13T10:29:22;8.40;99.90
7461;DHT22;6757;52.258;12.840;2023-01-13T10:31:51;8.40;99.90
7461;DHT22;6757;52.258;12.840;2023-01-13T10:34:20;8.40;99.90
7461;DHT22;6757;52.258;12.840;2023-01-13T10:36:59;8.40;99.90
7461;DHT22;6757;52.258;12.840;2023-01-13T10:39:37;8.30;99.90
7461;DHT22;6757;52.258;12.840;2023-01-13T10:42:09;8.40;99.90
7461;DHT22;6757;52.258;12.840;2023-01-13T10:44:46;8.40;99.90
7461;DHT22;6757;52.258;12.840;2023-01-13T10:47:23;8.40;99.90
7461;DHT22;6757;52.258;12.840;2023-01-13T10:50:02;8.40;99.90
7461;DHT22;6757;52.258;12.840;2023-01-13T10:52:58;8.50;99.90
7461;DHT22;6757;52.258;12.840;2023-01-13T10:55:29;8.60;99.90
7461;DHT22;6757;52.258;12.840;2023-01-13T10:58:11;8.60;99.90
7461;DHT22;6757;52.258;12.840;2023-01-13T11:00:38;8.70;99.90
7461;DHT22;6757;52.258;12.840;2023-01-13T11:03:17;8.80;99.90
7461;DHT22;6757;52.258;12.840;2023-01-13T11:05:52;8.90;99.90
7461;DHT22;6757;52.258;12.840;2023-01-13T11:08:22;9.00;99.90
7461;DHT22;6757;52.258;12.840;2023-01-13T11:10:53;9.20;99.90
7461;DHT22;6757;52.258;12.840;2023-01-13T11:13:27;9.30;99.90
7461;DHT22;6757;52.258;12.840;2023-01-13T11:16:00;9.40;99.90
7461;DHT22;6757;52.258;12.840;2023-01-13T11:18:38;9.50;99.90
7461;DHT22;6757;52.258;12.840;2023-01-13T11:21:19;9.60;99.90
7461;DHT22;6757;52.258;12.840;2023-01-13T11:23:56;9.70;99.90
7461;DHT22;6757;52.258;12.840;2023-01-13T11:26:39;9.70;99.90
7461;DHT22;6757;52.258;12.840;2023-01-13T11:29:12;9.70;99.90
7461;DHT22;6757;52.258;12.840;2023-01-13T11:31:45;9.80;99.90
7461;DHT22;6757;52.258;12.840;2023-01-13T11:34:24;9.90;99.90
7461;DHT22;6757;52.258;12.840;2023-01-13T11:36:57;9.90;99.90
7461;DHT22;6757;52.258;12.840;2023-01-13T11:39:29;10.00;99.90
7461;DHT22;6757;52.258;12.840;2023-01-13T11:42:02;10.00;99.90
7461;DHT22;6757;52.258;12.840;2023-01-13T11:44:58;10.10;99.90
7461;DHT22;6757;52.258;12.840;2023-01-13T11:47:31;10.20;99.90
7461;DHT22;6757;52.258;12.840;2023-01-13T11:49:59;10.40;99.90
7461;DHT22;6757;52.258;12.840;2023-01-13T11:52:41;10.50;99.90
7461;DHT22;6757;52.258;12.840;2023-01-13T11:55:27;10.50;99.90
7461;DHT22;6757;52.258;12.840;2023-01-13T11:58:18;10.50;99.90
7461;DHT22;6757;52.258;12.840;2023-01-13T12:01:05;10.60;99.90
7461;DHT22;6757;52.258;12.840;2023-01-13T12:03:40;10.60;99.90
7461;DHT22;6757;52.258;12.840;2023-01-13T12:06:20;10.70;99.90
7461;DHT22;6757;52.258;12.840;2023-01-13T12:09:17;10.70;99.90
7461;DHT22;6757;52.258;12.840;2023-01-13T12:12:09;10.70;99.90
7461;DHT22;6757;52.258;12.840;2023-01-13T12:15:13;10.70;99.90
7461;DHT22;6757;52.258;12.840;2023-01-13T12:18:14;10.70;99.90
7461;DHT22;6757;52.258;12.840;2023-01-13T12:20:55;10.80;99.90
7461;DHT22;6757;52.258;12.840;2023-01-13T12:23:33;10.90;99.90
7461;DHT22;6757;52.258;12.840;2023-01-13T12:26:05;10.90;99.90
7461;DHT22;6757;52.258;12.840;2023-01-13T12:28:41;10.90;99.90
7461;DHT22;6757;52.258;12.840;2023-01-13T12:31:11;11.00;99.90
7461;DHT22;6757;52.258;12.840;2023-01-13T12:33:55;11.10;99.90
7461;DHT22;6757;52.258;12.840;2023-01-13T12:36:30;11.30;99.90
7461;DHT22;6757;52.258;12.840;2023-01-13T12:39:10;11.50;99.90
7461;DHT22;6757;52.258;12.840;2023-01-13T12:41:59;11.50;99.90
7461;DHT22;6757;52.258;12.840;2023-01-13T12:45:20;11.40;99.90
7461;DHT22;6757;52.258;12.840;2023-01-13T12:47:49;11.30;99.90
7461;DHT22;6757;52.258;12.840;2023-01-13T12:50:39;11.20;99.90
7461;DHT22;6757;52.258;12.840;2023-01-13T12:53:30;11.10;99.90
7461;DHT22;6757;52.258;12.840;2023-01-13T12:56:27;11.00;99.90
7461;DHT22;6757;52.258;12.840;2023-01-13T13:02:28;10.70;99.90
7461;DHT22;6757;52.258;12.840;2023-01-13T13:05:34;10.60;99.90
7461;DHT22;6757;52.258;12.840;2023-01-13T13:08:11;10.50;99.90
7461;DHT22;6757;52.258;12.840;2023-01-13T13:10:55;10.40;99.90
7461;DHT22;6757;52.258;12.840;2023-01-13T13:13:43;10.30;99.90
7461;DHT22;6757;52.258;12.840;2023-01-13T13:16:43;10.30;99.90
7461;DHT22;6757;52.258;12.840;2023-01-13T13:19:40;10.20;99.90
7461;DHT22;6757;52.258;12.840;2023-01-13T13:22:18;10.20;99.90
7461;DHT22;6757;52.258;12.840;2023-01-13T13:25:21;10.20;99.90
7461;DHT22;6757;52.258;12.840;2023-01-13T13:28:12;10.20;99.90
7461;DHT22;6757;52.258;12.840;2023-01-13T13:31:09;10.20;99.90
7461;DHT22;6757;52.258;12.840;2023-01-13T13:34:07;10.30;99.90
7461;DHT22;6757;52.258;12.840;2023-01-13T13:36:56;10.40;99.90
7461;DHT22;6757;52.258;12.840;2023-01-13T13:39:33;10.50;99.90
7461;DHT22;6757;52.258;12.840;2023-01-13T13:42:21;10.50;99.90
7461;DHT22;6757;52.258;12.840;2023-01-13T13:45:13;10.40;99.90
7461;DHT22;6757;52.258;12.840;2023-01-13T13:47:59;10.40;99.90
7461;DHT22;6757;52.258;12.840;2023-01-13T13:50:28;10.30;99.90
7461;DHT22;6757;52.258;12.840;2023-01-13T13:53:02;10.20;99.90
7461;DHT22;6757;52.258;12.840;2023-01-13T13:55:31;10.20;99.90
7461;DHT22;6757;52.258;12.840;2023-01-13T13:58:00;10.10;99.90
7461;DHT22;6757;52.258;12.840;2023-01-13T14:00:28;10.00;99.90
7461;DHT22;6757;52.258;12.840;2023-01-13T14:02:58;10.00;99.90
7461;DHT22;6757;52.258;12.840;2023-01-13T14:05:29;10.00;99.90
7461;DHT22;6757;52.258;12.840;2023-01-13T14:08:01;10.00;99.90
7461;DHT22;6757;52.258;12.840;2023-01-13T14:10:31;10.00;99.90
7461;DHT22;6757;52.258;12.840;2023-01-13T14:13:00;10.00;99.90
7461;DHT22;6757;52.258;12.840;2023-01-13T14:15:32;10.00;99.90
7461;DHT22;6757;52.258;12.840;2023-01-13T14:18:03;10.00;99.90
7461;DHT22;6757;52.258;12.840;2023-01-13T14:20:32;10.00;99.90
7461;DHT22;6757;52.258;12.840;2023-01-13T14:23:01;10.00;99.90
7461;DHT22;6757;52.258;12.840;2023-01-13T14:25:33;10.00;99.90
7461;DHT22;6757;52.258;12.840;2023-01-13T14:28:16;9.90;99.90
7461;DHT22;6757;52.258;12.840;2023-01-13T14:30:46;9.90;99.90
7461;DHT22;6757;52.258;12.840;2023-01-13T14:33:16;9.80;99.90
7461;DHT22;6757;52.258;12.840;2023-01-13T14:36:05;9.80;99.90
7461;DHT22;6757;52.258;12.840;2023-01-13T14:38:35;9.80;99.90
7461;DHT22;6757;52.258;12.840;2023-01-13T14:41:15;9.80;99.90
7461;DHT22;6757;52.258;12.840;2023-01-13T14:43:46;9.70;99.90
7461;DHT22;6757;52.258;12.840;2023-01-13T14:46:14;9.70;99.90
7461;DHT22;6757;52.258;12.840;2023-01-13T14:48:43;9.70;99.90
7461;DHT22;6757;52.258;12.840;2023-01-13T14:51:21;9.60;99.90
7461;DHT22;6757;52.258;12.840;2023-01-13T14:53:51;9.60;99.90
7461;DHT22;6757;52.258;12.840;2023-01-13T14:56:41;9.50;99.90
7461;DHT22;6757;52.258;12.840;2023-01-13T14:59:47;9.50;99.90
7461;DHT22;6757;52.258;12.840;2023-01-13T15:02:37;9.40;99.90
7461;DHT22;6757;52.258;12.840;2023-01-13T15:05:28;9.30;99.90
7461;DHT22;6757;52.258;12.840;2023-01-13T15:08:04;9.30;99.90
7461;DHT22;6757;52.258;12.840;2023-01-13T15:10:44;9.20;99.90
7461;DHT22;6757;52.258;12.840;2023-01-13T15:13:23;9.20;99.90
7461;DHT22;6757;52.258;12.840;2023-01-13T15:15:54;9.10;99.90
7461;DHT22;6757;52.258;12.840;2023-01-13T15:18:23;9.10;99.90
7461;DHT22;6757;52.258;12.840;2023-01-13T15:20:50;9.00;99.90
7461;DHT22;6757;52.258;12.840;2023-01-13T15:23:19;9.00;99.90
7461;DHT22;6757;52.258;12.840;2023-01-13T15:25:47;8.90;99.90
7461;DHT22;6757;52.258;12.840;2023-01-13T15:28:17;8.90;99.90
7461;DHT22;6757;52.258;12.840;2023-01-13T15:30:45;8.90;99.90
7461;DHT22;6757;52.258;12.840;2023-01-13T15:33:13;8.80;99.90
7461;DHT22;6757;52.258;12.840;2023-01-13T15:35:42;8.80;99.90
7461;DHT22;6757;52.258;12.840;2023-01-13T15:38:11;8.80;99.90
7461;DHT22;6757;52.258;12.840;2023-01-13T15:40:41;8.80;99.90
7461;DHT22;6757;52.258;12.840;2023-01-13T15:43:12;8.70;99.90
7461;DHT22;6757;52.258;12.840;2023-01-13T15:45:57;8.70;99.90
7461;DHT22;6757;52.258;12.840;2023-01-13T15:48:42;8.70;99.90
7461;DHT22;6757;52.258;12.840;2023-01-13T15:51:09;8.70;99.90
7461;DHT22;6757;52.258;12.840;2023-01-13T15:53:37;8.70;99.90
7461;DHT22;6757;52.258;12.840;2023-01-13T15:56:12;8.60;99.90
7461;DHT22;6757;52.258;12.840;2023-01-13T15:58:41;8.60;99.90
7461;DHT22;6757;52.258;12.840;2023-01-13T16:01:09;8.60;99.90
7461;DHT22;6757;52.258;12.840;2023-01-13T16:03:37;8.60;99.90
7461;DHT22;6757;52.258;12.840;2023-01-13T16:06:08;8.50;99.90
7461;DHT22;6757;52.258;12.840;2023-01-13T16:08:38;8.50;99.90
7461;DHT22;6757;52.258;12.840;2023-01-13T16:11:07;8.50;99.90
7461;DHT22;6757;52.258;12.840;2023-01-13T16:13:34;8.50;99.90
7461;DHT22;6757;52.258;12.840;2023-01-13T16:16:02;8.50;99.90
7461;DHT22;6757;52.258;12.840;2023-01-13T16:18:29;8.50;99.90
7461;DHT22;6757;52.258;12.840;2023-01-13T16:20:56;8.40;99.90
7461;DHT22;6757;52.258;12.840;2023-01-13T16:23:23;8.40;99.90
7461;DHT22;6757;52.258;12.840;2023-01-13T16:25:50;8.40;99.90
7461;DHT22;6757;52.258;12.840;2023-01-13T16:28:21;8.30;99.90
7461;DHT22;6757;52.258;12.840;2023-01-13T16:30:49;8.30;99.90
7461;DHT22;6757;52.258;12.840;2023-01-13T16:33:16;8.30;99.90
7461;DHT22;6757;52.258;12.840;2023-01-13T16:35:43;8.30;99.90
7461;DHT22;6757;52.258;12.840;2023-01-13T16:38:14;8.30;99.90
7461;DHT22;6757;52.258;12.840;2023-01-13T16:40:42;8.20;99.90
7461;DHT22;6757;52.258;12.840;2023-01-13T16:43:11;8.20;99.90
7461;DHT22;6757;52.258;12.840;2023-01-13T16:45:40;8.20;99.90
7461;DHT22;6757;52.258;12.840;2023-01-13T16:48:15;8.20;99.90